sensor_id;sensor_type;location;lat;lon;timestamp;pressure;altitude;pressure_sealevel;temperature;humidity
49585;BME280;35491;49.142;9.210;2023-02-19T00:14:22;100442.16;;;9.27;86.51
49585;BME280;35491;49.142;9.210;2023-02-19T00:17:57;100441.94;;;9.30;85.04
49585;BME280;35491;49.142;9.210;2023-02-19T00:20:26;100444.69;;;9.29;84.52
49585;BME280;35491;49.142;9.210;2023-02-19T00:21:36;100446.63;;;9.27;84.85
49585;BME280;35491;49.142;9.210;2023-02-19T00:30:52;100438.16;;;9.33;83.47
49585;BME280;35491;49.142;9.210;2023-02-19T00:31:57;100442.53;;;9.34;83.24
49585;BME280;35491;49.142;9.210;2023-02-19T00:33:01;100444.91;;;9.37;83.14
49585;BME280;35491;49.142;9.210;2023-02-19T00:34:03;100436.13;;;9.46;82.97
49585;BME280;35491;49.142;9.210;2023-02-19T00:35:07;100434.06;;;9.50;82.92
49585;BME280;35491;49.142;9.210;2023-02-19T00:36:12;100434.72;;;9.42;82.06
49585;BME280;35491;49.142;9.210;2023-02-19T00:37:25;100421.63;;;9.39;82.43
49585;BME280;35491;49.142;9.210;2023-02-19T00:38:27;100419.81;;;9.40;81.98
49585;BME280;35491;49.142;9.210;2023-02-19T00:39:33;100426.22;;;9.37;82.08
49585;BME280;35491;49.142;9.210;2023-02-19T00:40:34;100411.66;;;9.41;82.05
49585;BME280;35491;49.142;9.210;2023-02-19T00:41:41;100417.25;;;9.38;82.49
49585;BME280;35491;49.142;9.210;2023-02-19T00:42:42;100425.41;;;9.36;82.88
49585;BME280;35491;49.142;9.210;2023-02-19T00:43:49;100422.88;;;9.35;83.55
49585;BME280;35491;49.142;9.210;2023-02-19T00:44:54;100422.88;;;9.35;83.48
49585;BME280;35491;49.142;9.210;2023-02-19T00:46:00;100416.03;;;9.42;83.06
49585;BME280;35491;49.142;9.210;2023-02-19T00:47:14;100413.03;;;9.35;83.59
49585;BME280;35491;49.142;9.210;2023-02-19T00:48:18;100415.09;;;9.32;83.23
49585;BME280;35491;49.142;9.210;2023-02-19T00:50:33;100411.00;;;9.28;83.36
49585;BME280;35491;49.142;9.210;2023-02-19T00:51:36;100414.91;;;9.24;83.21
49585;BME280;35491;49.142;9.210;2023-02-19T00:52:40;100398.03;;;9.23;83.47
49585;BME280;35491;49.142;9.210;2023-02-19T00:53:42;100411.50;;;9.21;83.59
49585;BME280;35491;49.142;9.210;2023-02-19T00:54:46;100403.38;;;9.23;83.46
49585;BME280;35491;49.142;9.210;2023-02-19T00:55:47;100409.66;;;9.22;82.72
49585;BME280;35491;49.142;9.210;2023-02-19T00:56:51;100400.69;;;9.23;82.79
49585;BME280;35491;49.142;9.210;2023-02-19T00:58:03;100386.16;;;9.27;83.19
49585;BME280;35491;49.142;9.210;2023-02-19T00:59:07;100369.16;;;9.28;83.71
49585;BME280;35491;49.142;9.210;2023-02-19T01:00:14;100359.09;;;9.32;83.67
49585;BME280;35491;49.142;9.210;2023-02-19T01:01:21;100371.44;;;9.33;83.58
49585;BME280;35491;49.142;9.210;2023-02-19T01:02:23;100381.63;;;9.28;83.94
49585;BME280;35491;49.142;9.210;2023-02-19T01:03:27;100390.84;;;9.35;83.63
49585;BME280;35491;49.142;9.210;2023-02-19T01:04:39;100387.84;;;9.28;84.16
49585;BME280;35491;49.142;9.210;2023-02-19T01:05:43;100398.13;;;9.33;84.19
49585;BME280;35491;49.142;9.210;2023-02-19T01:06:54;100398.13;;;9.33;84.20
49585;BME280;35491;49.142;9.210;2023-02-19T01:07:58;100400.47;;;9.26;84.13
49585;BME280;35491;49.142;9.210;2023-02-19T01:08:59;100396.94;;;9.26;84.24
49585;BME280;35491;49.142;9.210;2023-02-19T01:10:03;100395.72;;;9.30;84.49
49585;BME280;35491;49.142;9.210;2023-02-19T01:11:08;100402.97;;;9.28;84.21
49585;BME280;35491;49.142;9.210;2023-02-19T01:12:12;100401.28;;;9.27;84.27
49585;BME280;35491;49.142;9.210;2023-02-19T01:13:13;100404.44;;;9.32;84.56
49585;BME280;35491;49.142;9.210;2023-02-19T01:14:17;100410.94;;;9.39;84.14
49585;BME280;35491;49.142;9.210;2023-02-19T01:15:22;100403.66;;;9.41;84.20
49585;BME280;35491;49.142;9.210;2023-02-19T01:16:28;100391.09;;;9.32;83.81
49585;BME280;35491;49.142;9.210;2023-02-19T01:17:30;100403.31;;;9.34;83.91
49585;BME280;35491;49.142;9.210;2023-02-19T01:18:43;100399.56;;;9.37;83.97
49585;BME280;35491;49.142;9.210;2023-02-19T01:21:18;100398.38;;;9.30;83.83
49585;BME280;35491;49.142;9.210;2023-02-19T01:22:20;100411.00;;;9.28;83.75
49585;BME280;35491;49.142;9.210;2023-02-19T01:23:24;100411.56;;;9.31;83.67
49585;BME280;35491;49.142;9.210;2023-02-19T01:24:30;100404.06;;;9.36;83.87
49585;BME280;35491;49.142;9.210;2023-02-19T01:25:33;100396.50;;;9.42;83.78
49585;BME280;35491;49.142;9.210;2023-02-19T01:26:38;100379.91;;;9.38;83.67
49585;BME280;35491;49.142;9.210;2023-02-19T01:27:44;100391.09;;;9.32;83.52
49585;BME280;35491;49.142;9.210;2023-02-19T01:29:54;100382.84;;;9.35;83.96
49585;BME280;35491;49.142;9.210;2023-02-19T01:30:59;100389.25;;;9.32;83.53
49585;BME280;35491;49.142;9.210;2023-02-19T02:30:57;100356.44;;;8.99;89.27
49585;BME280;35491;49.142;9.210;2023-02-19T02:32:02;100345.38;;;9.04;89.77
49585;BME280;35491;49.142;9.210;2023-02-19T02:34:15;100354.56;;;9.11;88.76
49585;BME280;35491;49.142;9.210;2023-02-19T02:35:19;100347.53;;;9.10;89.19
49585;BME280;35491;49.142;9.210;2023-02-19T02:39:58;100342.75;;;8.93;89.45
49585;BME280;35491;49.142;9.210;2023-02-19T02:41:03;100349.53;;;8.97;89.17
49585;BME280;35491;49.142;9.210;2023-02-19T02:42:05;100354.00;;;8.96;89.09
49585;BME280;35491;49.142;9.210;2023-02-19T02:43:21;100347.09;;;9.05;88.29
49585;BME280;35491;49.142;9.210;2023-02-19T02:44:32;100345.38;;;9.04;88.42
49585;BME280;35491;49.142;9.210;2023-02-19T02:45:34;100334.38;;;8.97;88.17
49585;BME280;35491;49.142;9.210;2023-02-19T02:46:39;100326.81;;;9.02;87.93
49585;BME280;35491;49.142;9.210;2023-02-19T02:47:46;100332.50;;;9.09;87.37
49585;BME280;35491;49.142;9.210;2023-02-19T02:51:39;100329.25;;;9.05;85.69
49585;BME280;35491;49.142;9.210;2023-02-19T02:52:44;100326.91;;;9.12;85.35
49585;BME280;35491;49.142;9.210;2023-02-19T02:54:03;100324.97;;;9.14;85.11
49585;BME280;35491;49.142;9.210;2023-02-19T02:55:21;100340.97;;;9.14;84.80
49585;BME280;35491;49.142;9.210;2023-02-19T03:25:24;100310.59;;;9.27;81.60
49585;BME280;35491;49.142;9.210;2023-02-19T03:26:41;100311.31;;;9.29;81.24
49585;BME280;35491;49.142;9.210;2023-02-19T03:27:54;100312.16;;;9.29;80.98
49585;BME280;35491;49.142;9.210;2023-02-19T03:28:57;100310.19;;;9.31;81.52
49585;BME280;35491;49.142;9.210;2023-02-19T03:30:15;100306.31;;;9.35;81.28
49585;BME280;35491;49.142;9.210;2023-02-19T03:31:21;100306.88;;;9.39;80.55
49585;BME280;35491;49.142;9.210;2023-02-19T03:32:26;100306.88;;;9.39;80.59
49585;BME280;35491;49.142;9.210;2023-02-19T03:33:32;100306.63;;;9.42;80.65
49585;BME280;35491;49.142;9.210;2023-02-19T03:34:34;100319.50;;;9.37;79.86
49585;BME280;35491;49.142;9.210;2023-02-19T03:35:39;100312.81;;;9.43;80.19
49585;BME280;35491;49.142;9.210;2023-02-19T03:36:42;100310.91;;;9.55;79.86
49585;BME280;35491;49.142;9.210;2023-02-19T03:37:49;100316.56;;;9.61;79.53
49585;BME280;35491;49.142;9.210;2023-02-19T03:38:59;100312.28;;;9.49;79.44
49585;BME280;35491;49.142;9.210;2023-02-19T03:40:05;100319.25;;;9.40;79.89
49585;BME280;35491;49.142;9.210;2023-02-19T03:41:13;100324.34;;;9.43;79.56
49585;BME280;35491;49.142;9.210;2023-02-19T03:42:26;100315.53;;;9.52;79.36
49585;BME280;35491;49.142;9.210;2023-02-19T03:43:31;100312.81;;;9.43;79.19
49585;BME280;35491;49.142;9.210;2023-02-19T03:44:40;100317.31;;;9.42;79.63
49585;BME280;35491;49.142;9.210;2023-02-19T03:45:43;100317.69;;;9.38;79.52
49585;BME280;35491;49.142;9.210;2023-02-19T03:46:50;100323.66;;;9.30;79.78
49585;BME280;35491;49.142;9.210;2023-02-19T03:47:57;100334.94;;;9.33;79.75
49585;BME280;35491;49.142;9.210;2023-02-19T03:49:08;100320.16;;;9.50;79.29
49585;BME280;35491;49.142;9.210;2023-02-19T03:50:14;100338.66;;;9.42;79.26
49585;BME280;35491;49.142;9.210;2023-02-19T03:51:24;100331.56;;;9.52;79.31
49585;BME280;35491;49.142;9.210;2023-02-19T03:52:31;100327.78;;;9.55;78.93
49585;BME280;35491;49.142;9.210;2023-02-19T03:53:41;100332.53;;;9.51;78.33
49585;BME280;35491;49.142;9.210;2023-02-19T03:54:49;100334.22;;;9.52;78.70
49585;BME280;35491;49.142;9.210;2023-02-19T03:56:03;100332.19;;;9.45;78.61
49585;BME280;35491;49.142;9.210;2023-02-19T03:57:10;100336.63;;;9.56;78.60
49585;BME280;35491;49.142;9.210;2023-02-19T03:58:18;100333.25;;;9.54;78.53
49585;BME280;35491;49.142;9.210;2023-02-19T03:59:26;100319.00;;;9.43;78.54
49585;BME280;35491;49.142;9.210;2023-02-19T04:05:18;100340.75;;;9.39;78.66
49585;BME280;35491;49.142;9.210;2023-02-19T04:09:47;100345.22;;;9.38;78.79
49585;BME280;35491;49.142;9.210;2023-02-19T04:11:04;100345.53;;;9.24;78.93
49585;BME280;35491;49.142;9.210;2023-02-19T04:12:21;100343.22;;;9.30;78.81
49585;BME280;35491;49.142;9.210;2023-02-19T08:17:34;100534.78;;;9.80;74.92
49585;BME280;35491;49.142;9.210;2023-02-19T08:26:22;100545.63;;;9.67;75.03
49585;BME280;35491;49.142;9.210;2023-02-19T09:48:59;100622.75;;;10.47;69.92
49585;BME280;35491;49.142;9.210;2023-02-19T09:50:08;100623.94;;;10.54;69.42
49585;BME280;35491;49.142;9.210;2023-02-19T09:51:20;100624.84;;;10.65;69.19
49585;BME280;35491;49.142;9.210;2023-02-19T09:52:37;100624.59;;;10.47;69.44
49585;BME280;35491;49.142;9.210;2023-02-19T09:53:43;100638.88;;;10.57;68.91
49585;BME280;35491;49.142;9.210;2023-02-19T09:54:56;100636.28;;;10.45;68.97
49585;BME280;35491;49.142;9.210;2023-02-19T10:01:25;100627.13;;;10.69;67.93
49585;BME280;35491;49.142;9.210;2023-02-19T10:06:15;100620.88;;;10.59;68.85
